createdAt,value
2022-08-18T00:02:07.377Z,22.50
2022-08-18T00:04:48.640Z,21.55
2022-08-18T00:07:18.527Z,20.65
2022-08-18T00:09:47.739Z,22.40
2022-08-18T00:12:17.144Z,22.83
2022-08-18T00:14:45.163Z,22.23
2022-08-18T00:17:12.590Z,25.20
2022-08-18T00:19:46.778Z,23.30
2022-08-18T00:22:17.287Z,24.55
2022-08-18T00:24:48.690Z,24.17
2022-08-18T00:27:21.679Z,24.55
2022-08-18T00:29:49.624Z,25.17
2022-08-18T00:32:22.180Z,24.48
2022-08-18T00:37:16.858Z,24.48
2022-08-18T00:39:46.570Z,25.75
2022-08-18T00:42:28.171Z,24.80
2022-08-18T00:47:41.004Z,27.10
2022-08-18T00:50:17.226Z,27.17
2022-08-18T00:52:47.269Z,28.67
2022-08-18T00:55:15.174Z,28.00
2022-08-18T00:57:43.194Z,28.98
2022-08-18T01:00:14.737Z,29.92
2022-08-18T01:02:47.014Z,31.05
2022-08-18T01:05:22.290Z,29.65
2022-08-18T01:07:50.571Z,27.33
2022-08-18T01:10:23.099Z,27.20
2022-08-18T01:12:55.588Z,24.70
2022-08-18T01:15:29.420Z,25.02
2022-08-18T01:18:21.370Z,24.75
2022-08-18T01:21:25.685Z,26.17
2022-08-18T01:23:54.050Z,26.15
2022-08-18T01:26:22.670Z,27.15
2022-08-18T01:28:50.627Z,27.95
2022-08-18T01:31:56.979Z,27.80
2022-08-18T01:34:25.609Z,27.92
2022-08-18T01:36:53.345Z,28.45
2022-08-18T01:40:59.624Z,27.42
2022-08-18T01:42:08.049Z,29.15
2022-08-18T01:44:35.433Z,28.73
2022-08-18T01:47:02.837Z,29.45
2022-08-18T01:49:30.273Z,29.25
2022-08-18T01:51:57.546Z,29.13
2022-08-18T01:54:29.877Z,28.08
2022-08-18T01:56:57.163Z,30.85
2022-08-18T01:59:24.426Z,28.50
2022-08-18T02:01:55.756Z,29.60
2022-08-18T02:04:41.076Z,29.92
2022-08-18T02:07:09.809Z,28.20
2022-08-18T02:09:38.008Z,28.55
2022-08-18T02:12:07.352Z,28.55
2022-08-18T02:14:35.752Z,28.80
2022-08-18T02:17:03.981Z,30.00
2022-08-18T02:19:35.378Z,27.60
2022-08-18T02:22:02.860Z,29.25
2022-08-18T02:24:30.265Z,29.83
2022-08-18T02:26:57.814Z,30.55
2022-08-18T02:29:25.272Z,30.20
2022-08-18T02:31:52.524Z,28.15
2022-08-18T02:34:19.822Z,30.05
2022-08-18T02:36:47.165Z,30.33
2022-08-18T02:39:14.436Z,28.90
2022-08-18T02:41:42.109Z,29.98
2022-08-18T02:44:09.569Z,28.48
2022-08-18T02:46:37.740Z,29.38
2022-08-18T02:49:07.491Z,30.17
2022-08-18T02:51:34.779Z,30.33
2022-08-18T02:54:02.086Z,29.88
2022-08-18T02:56:40.413Z,28.27
2022-08-18T02:59:10.977Z,29.27
2022-08-18T03:01:40.198Z,29.35
2022-08-18T03:04:08.634Z,26.83
2022-08-18T03:06:37.232Z,27.98
2022-08-18T03:09:05.602Z,26.75
2022-08-18T03:11:32.832Z,28.67
2022-08-18T03:14:03.106Z,28.65
2022-08-18T03:16:32.782Z,28.38
2022-08-18T03:19:01.168Z,26.73
2022-08-18T03:21:29.655Z,27.63
2022-08-18T03:24:00.603Z,28.15
2022-08-18T03:26:30.221Z,27.77
2022-08-18T03:28:58.854Z,26.67
2022-08-18T03:31:28.091Z,26.48
2022-08-18T03:33:59.191Z,27.30
2022-08-18T03:36:29.042Z,27.88
2022-08-18T03:38:57.030Z,28.13
2022-08-18T03:41:57.166Z,26.75
2022-08-18T03:44:14.362Z,27.45
2022-08-18T03:46:42.708Z,28.02
2022-08-18T03:49:10.173Z,27.35
2022-08-18T03:51:37.851Z,28.17
2022-08-18T03:54:06.333Z,26.85
2022-08-18T03:56:36.304Z,27.23
2022-08-18T03:59:07.866Z,27.17
2022-08-18T04:01:39.246Z,26.23
2022-08-18T04:04:08.078Z,25.65
2022-08-18T04:06:39.359Z,26.45
2022-08-18T04:09:08.651Z,25.40
2022-08-18T04:11:37.225Z,25.92
2022-08-18T04:14:05.763Z,26.30
2022-08-18T04:16:34.831Z,24.55
2022-08-18T04:19:05.310Z,26.92
2022-08-18T04:21:33.681Z,28.65
2022-08-18T04:24:05.254Z,26.45
2022-08-18T04:26:33.757Z,25.77
2022-08-18T04:29:01.739Z,26.45
2022-08-18T04:31:29.602Z,23.67
2022-08-18T04:33:58.347Z,25.83
2022-08-18T04:36:26.605Z,24.48
2022-08-18T04:38:54.327Z,23.48
2022-08-18T04:41:27.302Z,23.38
2022-08-18T04:43:55.684Z,24.23
2022-08-18T04:46:24.055Z,24.92
2022-08-18T04:48:52.351Z,26.13
2022-08-18T04:52:26.902Z,23.65
2022-08-18T04:54:08.112Z,23.92
2022-08-18T04:56:37.813Z,23.90
2022-08-18T04:59:14.899Z,24.35
2022-08-18T05:01:45.386Z,24.75
2022-08-18T05:04:14.273Z,23.60
2022-08-18T05:06:43.360Z,27.08
2022-08-18T05:09:11.460Z,28.23
2022-08-18T05:11:39.075Z,29.40
2022-08-18T05:14:08.295Z,28.02
2022-08-18T05:16:47.730Z,28.08
2022-08-18T05:19:19.397Z,28.30
2022-08-18T05:21:50.810Z,27.45
2022-08-18T05:24:19.187Z,25.88
2022-08-18T05:26:46.781Z,27.27
2022-08-18T05:29:17.919Z,26.92
2022-08-18T05:31:47.516Z,27.08
2022-08-18T05:34:14.841Z,24.98
2022-08-18T05:36:51.870Z,24.85
2022-08-18T05:39:24.502Z,24.98
2022-08-18T05:44:20.805Z,23.75
2022-08-18T05:46:56.488Z,24.40
2022-08-18T05:49:25.862Z,24.15
2022-08-18T05:51:55.053Z,23.95
2022-08-18T05:54:55.037Z,23.08
2022-08-18T05:57:22.910Z,22.08
2022-08-18T05:59:53.137Z,24.55
2022-08-18T06:02:26.537Z,22.48
2022-08-18T06:04:59.207Z,21.48
2022-08-18T06:09:55.126Z,21.73
2022-08-18T06:12:30.011Z,21.20
2022-08-18T06:15:18.103Z,19.05
2022-08-18T06:17:55.319Z,20.10
2022-08-18T06:20:22.564Z,18.70
2022-08-18T06:23:01.899Z,18.40
2022-08-18T06:25:34.889Z,19.08
2022-08-18T06:28:05.334Z,19.35
2022-08-18T06:30:41.772Z,17.45
2022-08-18T06:33:29.674Z,18.17
2022-08-18T06:36:02.721Z,17.80
2022-08-18T06:38:39.330Z,17.52
2022-08-18T06:41:42.464Z,15.35
2022-08-18T06:46:37.641Z,14.75
2022-08-18T06:49:06.358Z,14.75
2022-08-18T06:51:38.738Z,15.30
2022-08-18T06:54:19.561Z,15.85
2022-08-18T06:56:51.870Z,15.85
2022-08-18T06:59:21.632Z,14.32
2022-08-18T07:01:50.850Z,15.45
2022-08-18T07:04:37.271Z,14.77
2022-08-18T07:07:18.682Z,13.90
2022-08-18T07:09:46.080Z,13.68
2022-08-18T07:12:19.602Z,13.32
2022-08-18T07:14:48.661Z,13.30
2022-08-18T07:17:22.305Z,12.00
2022-08-18T07:20:21.403Z,11.30
2022-08-18T07:22:53.645Z,11.10
2022-08-18T07:25:26.127Z,11.43
2022-08-18T07:30:26.299Z,11.75
2022-08-18T07:33:16.653Z,12.43
2022-08-18T07:35:46.624Z,11.38
2022-08-18T07:41:22.789Z,12.18
2022-08-18T07:43:52.953Z,11.20
2022-08-18T07:46:24.064Z,10.05
2022-08-18T07:48:54.373Z,10.13
2022-08-18T07:51:21.645Z,10.60
2022-08-18T07:53:56.810Z,11.30
2022-08-18T07:56:29.793Z,11.82
2022-08-18T07:58:59.752Z,11.85
2022-08-18T08:01:36.974Z,11.75
2022-08-18T08:04:25.007Z,12.40
2022-08-18T08:07:25.417Z,13.77
2022-08-18T08:10:31.550Z,13.27
2022-08-18T08:13:31.280Z,13.77
2022-08-18T08:16:25.221Z,13.20
2022-08-18T08:19:11.315Z,13.90
2022-08-18T08:21:45.153Z,13.05
2022-08-18T08:24:33.328Z,14.27
2022-08-18T08:27:00.591Z,14.35
2022-08-18T08:29:46.130Z,15.90
2022-08-18T08:32:16.664Z,16.27
2022-08-18T08:34:48.057Z,14.98
2022-08-18T08:37:25.218Z,16.25
2022-08-18T08:39:57.899Z,18.17
2022-08-18T08:42:33.652Z,17.05
2022-08-18T08:45:14.495Z,17.15
2022-08-18T08:47:46.823Z,17.05
2022-08-18T08:50:15.779Z,17.38
2022-08-18T08:52:47.117Z,18.00
2022-08-18T08:55:32.102Z,19.33
2022-08-18T08:58:08.712Z,19.98
2022-08-18T09:00:37.494Z,20.27
2022-08-18T09:03:16.767Z,19.13
2022-08-18T09:05:57.955Z,18.58
2022-08-18T09:08:31.047Z,21.90
2022-08-18T09:11:23.103Z,21.40
2022-08-18T09:13:56.381Z,20.70
2022-08-18T09:16:23.718Z,21.45
2022-08-18T09:18:54.927Z,21.67
2022-08-18T09:21:27.691Z,22.38
2022-08-18T09:23:59.323Z,21.10
2022-08-18T09:26:31.355Z,23.08
2022-08-18T09:29:11.840Z,20.17
2022-08-18T09:31:42.306Z,20.63
2022-08-18T09:34:21.386Z,19.67
2022-08-18T09:37:02.051Z,20.98
2022-08-18T09:39:53.872Z,21.70
2022-08-18T09:44:49.481Z,18.65
2022-08-18T09:47:24.376Z,19.17
2022-08-18T09:49:58.914Z,17.98
2022-08-18T09:52:37.306Z,18.30
2022-08-18T09:55:28.937Z,17.25
2022-08-18T09:58:31.595Z,18.23
2022-08-18T10:01:19.482Z,18.58
2022-08-18T10:04:08.876Z,17.63
2022-08-18T10:06:39.779Z,18.02
2022-08-18T10:09:27.007Z,17.73
2022-08-18T10:12:15.675Z,17.80
2022-08-18T10:15:02.716Z,17.65
2022-08-18T10:17:56.303Z,17.50
2022-08-18T10:20:33.670Z,19.02
2022-08-18T10:23:01.006Z,17.50
2022-08-18T10:25:33.413Z,15.88
2022-08-18T10:30:56.419Z,17.48
2022-08-18T10:33:43.918Z,18.08
2022-08-18T10:36:11.378Z,16.27
2022-08-18T10:38:49.023Z,15.35
2022-08-18T10:41:21.499Z,16.00
2022-08-18T10:43:55.736Z,15.07
2022-08-18T10:46:27.792Z,16.05
2022-08-18T10:48:59.894Z,15.50
2022-08-18T10:51:57.877Z,15.05
2022-08-18T10:54:29.593Z,17.30
2022-08-18T10:57:09.314Z,15.98
2022-08-18T10:59:54.460Z,17.67
2022-08-18T11:02:40.876Z,18.08
2022-08-18T11:05:08.989Z,18.38
2022-08-18T11:07:39.657Z,18.92
2022-08-18T11:10:29.828Z,17.70
2022-08-18T11:13:09.758Z,19.80
2022-08-18T11:15:50.503Z,19.27
2022-08-18T11:18:18.261Z,17.08
2022-08-18T11:20:47.493Z,18.73
2022-08-18T11:23:16.631Z,18.65
2022-08-18T11:25:44.946Z,19.83
2022-08-18T11:28:19.938Z,19.08
2022-08-18T11:30:51.122Z,21.73
2022-08-18T11:33:23.288Z,17.95
2022-08-18T11:36:01.185Z,18.02
2022-08-18T11:38:31.147Z,18.63
2022-08-18T11:41:33.155Z,17.48
2022-08-18T11:44:18.140Z,19.98
2022-08-18T11:46:51.706Z,19.08
2022-08-18T11:49:26.013Z,18.98
2022-08-18T11:51:55.332Z,18.55
2022-08-18T11:54:24.729Z,19.10
2022-08-18T11:56:52.349Z,19.88
2022-08-18T11:59:53.750Z,19.02
2022-08-18T12:02:18.179Z,17.88
2022-08-18T12:04:50.475Z,16.33
2022-08-18T12:07:20.821Z,19.38
2022-08-18T12:12:45.168Z,15.80
2022-08-18T12:15:17.647Z,16.13
2022-08-18T12:18:00.537Z,17.75
2022-08-18T12:20:28.280Z,15.57
2022-08-18T12:22:57.455Z,17.20
2022-08-18T12:25:25.690Z,17.02
2022-08-18T12:27:54.410Z,14.93
2022-08-18T12:30:21.704Z,15.43
2022-08-18T12:33:01.029Z,15.13
2022-08-18T12:35:33.389Z,16.48
2022-08-18T12:38:12.427Z,18.02
2022-08-18T12:40:41.612Z,17.42
2022-08-18T12:43:09.229Z,17.48
2022-08-18T12:45:38.300Z,17.55
2022-08-18T12:48:07.099Z,18.05
2022-08-18T12:50:41.171Z,18.02
2022-08-18T12:53:30.088Z,19.10
2022-08-18T12:56:22.256Z,18.23
2022-08-18T12:58:49.963Z,18.25
2022-08-18T13:01:19.124Z,19.08
2022-08-18T13:06:40.621Z,19.80
2022-08-18T13:09:16.303Z,20.70
2022-08-18T13:11:56.184Z,19.05
2022-08-18T13:14:28.387Z,17.40
2022-08-18T13:16:55.721Z,17.10
2022-08-18T13:19:23.058Z,17.25
2022-08-18T13:21:51.311Z,17.80
2022-08-18T13:24:21.991Z,17.33
2022-08-18T13:26:49.753Z,17.55
2022-08-18T13:29:19.466Z,16.73
2022-08-18T13:31:56.013Z,15.55
2022-08-18T13:34:26.438Z,13.70
2022-08-18T13:36:54.019Z,14.27
2022-08-18T13:39:22.580Z,14.88
2022-08-18T13:41:52.667Z,13.55
2022-08-18T13:44:21.158Z,13.73
2022-08-18T13:46:48.958Z,13.40
2022-08-18T13:49:18.417Z,13.02
2022-08-18T13:51:51.674Z,14.55
2022-08-18T13:54:30.830Z,14.32
2022-08-18T13:57:00.213Z,10.93
2022-08-18T13:59:32.886Z,10.30
2022-08-18T14:02:02.124Z,8.27
2022-08-18T14:04:29.930Z,7.68
2022-08-18T14:06:59.034Z,8.80
2022-08-18T14:09:36.673Z,7.32
2022-08-18T14:12:15.830Z,8.02
2022-08-18T14:14:52.075Z,7.72
2022-08-18T14:17:19.922Z,7.80
2022-08-18T14:20:10.731Z,7.45
2022-08-18T14:23:10.033Z,6.78
2022-08-18T14:25:56.074Z,6.72
2022-08-18T14:28:24.867Z,7.30
2022-08-18T14:30:54.369Z,7.35
2022-08-18T14:33:49.824Z,7.15
2022-08-18T14:36:10.930Z,5.97
2022-08-18T14:38:38.549Z,6.80
2022-08-18T14:41:07.899Z,6.40
2022-08-18T14:44:11.183Z,7.10
2022-08-18T14:46:29.903Z,6.10
2022-08-18T14:48:58.001Z,5.18
2022-08-18T14:51:27.315Z,5.85
2022-08-18T14:53:55.320Z,5.80
2022-08-18T14:56:24.445Z,5.60
2022-08-18T14:58:56.224Z,4.43
2022-08-18T15:01:26.681Z,5.03
2022-08-18T15:03:55.115Z,5.30
2022-08-18T15:06:27.142Z,5.35
2022-08-18T15:08:55.037Z,5.68
2022-08-18T15:11:24.470Z,5.07
2022-08-18T15:13:55.149Z,5.18
2022-08-18T15:16:31.532Z,5.60
2022-08-18T15:18:59.581Z,4.68
2022-08-18T15:21:47.334Z,4.85
2022-08-18T15:24:39.770Z,4.57
2022-08-18T15:27:10.407Z,3.95
2022-08-18T15:29:46.751Z,4.63
2022-08-18T15:32:17.536Z,5.40
2022-08-18T15:34:46.265Z,5.07
2022-08-18T15:37:15.877Z,4.57
2022-08-18T15:39:47.333Z,4.82
2022-08-18T15:42:23.546Z,3.63
2022-08-18T15:44:53.558Z,4.45
2022-08-18T15:47:21.328Z,3.78
2022-08-18T15:49:48.900Z,3.95
2022-08-18T15:52:19.866Z,3.20
2022-08-18T15:54:50.615Z,3.22
2022-08-18T15:57:38.585Z,3.67
2022-08-18T16:00:06.737Z,3.67
2022-08-18T16:02:34.559Z,4.10
2022-08-18T16:05:10.196Z,4.93
2022-08-18T16:07:41.427Z,4.55
2022-08-18T16:10:12.877Z,4.30
2022-08-18T16:12:45.599Z,4.32
2022-08-18T16:15:14.228Z,3.97
2022-08-18T16:17:47.741Z,4.15
2022-08-18T16:20:15.201Z,3.60
2022-08-18T16:22:42.574Z,3.60
2022-08-18T16:25:10.128Z,3.63
2022-08-18T16:27:41.373Z,3.55
2022-08-18T16:30:10.140Z,3.10
2022-08-18T16:32:37.459Z,3.05
2022-08-18T16:35:05.165Z,2.70
2022-08-18T16:37:32.497Z,3.17
2022-08-18T16:39:59.854Z,2.95
2022-08-18T16:42:29.854Z,3.72
2022-08-18T16:44:57.116Z,2.75
2022-08-18T16:47:24.364Z,3.00
2022-08-18T16:49:52.865Z,3.35
2022-08-18T16:52:27.141Z,3.47
2022-08-18T16:54:57.860Z,3.47
2022-08-18T16:57:54.029Z,3.30
2022-08-18T17:00:41.317Z,3.03
2022-08-18T17:03:27.438Z,2.92
2022-08-18T17:06:02.106Z,3.13
2022-08-18T17:08:31.270Z,2.65
2022-08-18T17:10:58.503Z,3.03
2022-08-18T17:13:25.784Z,3.33
2022-08-18T17:15:53.160Z,3.20
2022-08-18T17:18:20.521Z,3.38
2022-08-18T17:20:47.796Z,3.92
2022-08-18T17:23:15.053Z,3.72
2022-08-18T17:25:42.461Z,3.70
2022-08-18T17:28:10.271Z,3.50
2022-08-18T17:30:39.426Z,4.15
2022-08-18T17:33:10.695Z,3.05
2022-08-18T17:35:42.384Z,4.07
2022-08-18T17:38:13.561Z,3.30
2022-08-18T17:40:43.845Z,3.67
2022-08-18T17:43:15.692Z,4.50
2022-08-18T17:45:43.193Z,4.07
2022-08-18T17:48:16.239Z,3.60
2022-08-18T17:51:06.765Z,3.88
2022-08-18T17:53:34.343Z,4.47
2022-08-18T17:56:10.786Z,3.78
2022-08-18T17:58:59.449Z,4.18
2022-08-18T18:01:28.631Z,3.50
2022-08-18T18:03:56.041Z,4.00
2022-08-18T18:06:37.402Z,3.35
2022-08-18T18:09:09.973Z,3.40
2022-08-18T18:11:39.044Z,2.92
2022-08-18T18:14:26.561Z,3.13
2022-08-18T18:17:19.903Z,2.95
2022-08-18T18:19:49.401Z,2.40
2022-08-18T18:22:21.546Z,2.90
2022-08-18T18:24:51.828Z,2.97
2022-08-18T18:27:27.234Z,2.80
2022-08-18T18:30:02.304Z,2.70
2022-08-18T18:32:59.682Z,3.15
2022-08-18T18:35:31.305Z,2.83
2022-08-18T18:38:06.138Z,2.47
2022-08-18T18:40:36.585Z,3.17
2022-08-18T18:43:24.006Z,3.08
2022-08-18T18:46:10.317Z,2.80
2022-08-18T18:48:51.934Z,2.95
2022-08-18T18:51:33.470Z,3.10
2022-08-18T18:54:02.276Z,2.50
2022-08-18T18:56:32.050Z,2.28
2022-08-18T18:58:59.406Z,2.55
2022-08-18T19:01:41.692Z,2.03
2022-08-18T19:04:14.895Z,2.95
2022-08-18T19:07:05.369Z,2.72
2022-08-18T19:09:48.487Z,2.65
2022-08-18T19:12:21.258Z,2.47
2022-08-18T19:14:59.833Z,3.05
2022-08-18T19:17:30.476Z,2.83
2022-08-18T19:20:09.524Z,2.90
2022-08-18T19:22:47.323Z,2.35
2022-08-18T19:25:17.819Z,2.10
2022-08-18T19:27:58.259Z,2.22
2022-08-18T19:30:25.533Z,2.42
2022-08-18T19:33:00.541Z,2.60
2022-08-18T19:35:45.465Z,2.70
2022-08-18T19:38:26.427Z,2.40
2022-08-18T19:40:58.646Z,2.72
2022-08-18T19:43:35.902Z,2.33
2022-08-18T19:46:17.036Z,2.22
2022-08-18T19:48:52.910Z,2.65
2022-08-18T19:51:40.109Z,3.22
2022-08-18T19:54:13.538Z,3.53
2022-08-18T19:57:09.433Z,3.38
2022-08-18T19:59:52.483Z,3.42
2022-08-18T20:02:38.684Z,3.35
2022-08-18T20:05:11.764Z,3.35
2022-08-18T20:07:55.343Z,2.58
2022-08-18T20:10:22.975Z,3.05
2022-08-18T20:12:57.590Z,3.00
2022-08-18T20:15:26.684Z,2.42
2022-08-18T20:18:05.771Z,2.90
2022-08-18T20:20:38.152Z,2.72
2022-08-18T20:23:24.116Z,2.33
2022-08-18T20:25:51.393Z,2.45
2022-08-18T20:28:23.714Z,2.50
2022-08-18T20:31:02.510Z,1.95
2022-08-18T20:33:31.766Z,1.42
2022-08-18T20:36:03.467Z,1.60
2022-08-18T20:38:36.369Z,1.73
2022-08-18T20:41:22.443Z,1.25
2022-08-18T20:43:55.573Z,1.20
2022-08-18T20:46:32.571Z,1.58
2022-08-18T20:49:21.892Z,1.80
2022-08-18T20:51:55.473Z,1.60
2022-08-18T20:54:34.297Z,1.70
2022-08-18T20:57:03.076Z,1.75
2022-08-18T20:59:33.277Z,1.50
2022-08-18T21:02:20.834Z,1.90
2022-08-18T21:04:49.966Z,1.60
2022-08-18T21:07:34.234Z,1.88
2022-08-18T21:10:20.681Z,1.90
2022-08-18T21:12:52.608Z,1.75
2022-08-18T21:15:20.636Z,1.83
2022-08-18T21:17:57.204Z,1.73
2022-08-18T21:20:24.661Z,1.52
2022-08-18T21:23:03.709Z,1.92
2022-08-18T21:25:32.579Z,1.90
2022-08-18T21:28:02.335Z,1.25
2022-08-18T21:30:30.264Z,1.85
2022-08-18T21:32:57.601Z,1.38
2022-08-18T21:35:29.932Z,1.60
2022-08-18T21:38:01.954Z,3.88
2022-08-18T21:40:36.178Z,1.90
2022-08-18T21:43:03.578Z,2.00
2022-08-18T21:45:31.176Z,1.75
2022-08-18T21:48:02.781Z,2.20
2022-08-18T21:50:32.351Z,2.35
2022-08-18T21:53:01.054Z,2.00
2022-08-18T21:55:33.530Z,2.28
2022-08-18T21:58:16.679Z,2.17
2022-08-18T22:00:46.113Z,1.80
2022-08-18T22:03:23.870Z,2.67
2022-08-18T22:06:09.984Z,2.92
2022-08-18T22:08:49.796Z,2.22
2022-08-18T22:12:00.717Z,2.78
2022-08-18T22:14:26.950Z,2.58
2022-08-18T22:17:14.353Z,2.78
2022-08-18T22:19:41.793Z,2.70
2022-08-18T22:22:28.427Z,2.38
2022-08-18T22:24:57.821Z,2.53
2022-08-18T22:27:26.004Z,3.28
2022-08-18T22:29:56.119Z,3.28
2022-08-18T22:32:23.456Z,2.42
2022-08-18T22:34:53.341Z,2.63
2022-08-18T22:37:22.157Z,2.65
2022-08-18T22:39:53.429Z,3.42
2022-08-18T22:42:23.414Z,3.38
2022-08-18T22:44:50.966Z,3.72
2022-08-18T22:47:18.273Z,4.07
2022-08-18T22:49:46.315Z,3.58
2022-08-18T22:52:19.400Z,3.15
2022-08-18T22:54:46.717Z,3.42
2022-08-18T22:57:17.545Z,4.30
2022-08-18T22:59:46.930Z,3.42
2022-08-18T23:02:15.104Z,3.50
2022-08-18T23:04:49.896Z,2.97
2022-08-18T23:07:22.892Z,3.53
2022-08-18T23:09:50.220Z,3.97
2022-08-18T23:12:17.984Z,3.63
2022-08-18T23:14:46.607Z,2.42
2022-08-18T23:17:14.182Z,1.83
2022-08-18T23:19:41.516Z,1.95
2022-08-18T23:22:09.781Z,1.73
2022-08-18T23:24:37.961Z,2.10
2022-08-18T23:27:06.277Z,1.80
2022-08-18T23:29:37.468Z,2.10
2022-08-18T23:32:05.838Z,1.45
2022-08-18T23:34:34.159Z,2.22
2022-08-18T23:37:02.607Z,1.75
2022-08-18T23:39:30.891Z,2.03
2022-08-18T23:41:58.775Z,2.97
2022-08-18T23:44:27.923Z,2.60
2022-08-18T23:46:55.754Z,3.05
2022-08-18T23:49:23.397Z,3.28
2022-08-18T23:51:54.866Z,2.97
2022-08-18T23:54:29.967Z,2.30
2022-08-18T23:56:57.532Z,2.58
2022-08-18T23:59:25.914Z,2.33
